sensor_id;sensor_type;location;lat;lon;timestamp;P1;durP1;ratioP1;P2;durP2;ratioP2
53044;SDS011;38930;52.766;6.884;2022-12-07T00:03:32;6.03;;;2.95;;
53044;SDS011;38930;52.766;6.884;2022-12-07T00:05:58;6.25;;;2.80;;
53044;SDS011;38930;52.766;6.884;2022-12-07T00:08:24;5.10;;;3.17;;
53044;SDS011;38930;52.766;6.884;2022-12-07T00:10:50;9.18;;;3.10;;
53044;SDS011;38930;52.766;6.884;2022-12-07T00:13:16;5.18;;;2.72;;
53044;SDS011;38930;52.766;6.884;2022-12-07T00:15:41;4.97;;;3.00;;
53044;SDS011;38930;52.766;6.884;2022-12-07T00:18:07;8.82;;;2.80;;
53044;SDS011;38930;52.766;6.884;2022-12-07T00:20:32;3.92;;;2.95;;
53044;SDS011;38930;52.766;6.884;2022-12-07T00:22:58;5.82;;;2.67;;
53044;SDS011;38930;52.766;6.884;2022-12-07T00:25:24;4.78;;;2.80;;
53044;SDS011;38930;52.766;6.884;2022-12-07T00:27:50;8.13;;;2.85;;
53044;SDS011;38930;52.766;6.884;2022-12-07T00:30:17;9.68;;;2.85;;
53044;SDS011;38930;52.766;6.884;2022-12-07T00:32:43;8.45;;;2.72;;
53044;SDS011;38930;52.766;6.884;2022-12-07T00:35:08;6.75;;;2.65;;
53044;SDS011;38930;52.766;6.884;2022-12-07T00:37:34;6.18;;;2.60;;
53044;SDS011;38930;52.766;6.884;2022-12-07T00:40:00;10.52;;;2.40;;
53044;SDS011;38930;52.766;6.884;2022-12-07T00:42:25;2.83;;;2.13;;
53044;SDS011;38930;52.766;6.884;2022-12-07T00:44:51;9.85;;;2.78;;
53044;SDS011;38930;52.766;6.884;2022-12-07T00:47:16;7.65;;;2.40;;
53044;SDS011;38930;52.766;6.884;2022-12-07T00:49:42;6.13;;;2.50;;
53044;SDS011;38930;52.766;6.884;2022-12-07T00:52:07;6.90;;;2.28;;
53044;SDS011;38930;52.766;6.884;2022-12-07T00:54:33;5.60;;;2.40;;
53044;SDS011;38930;52.766;6.884;2022-12-07T00:56:59;7.82;;;2.60;;
53044;SDS011;38930;52.766;6.884;2022-12-07T00:59:24;16.20;;;2.67;;
53044;SDS011;38930;52.766;6.884;2022-12-07T01:01:50;7.18;;;2.90;;
53044;SDS011;38930;52.766;6.884;2022-12-07T01:04:15;8.68;;;2.40;;
53044;SDS011;38930;52.766;6.884;2022-12-07T01:06:41;5.28;;;2.40;;
53044;SDS011;38930;52.766;6.884;2022-12-07T01:09:06;7.45;;;2.30;;
53044;SDS011;38930;52.766;6.884;2022-12-07T01:11:32;8.27;;;2.42;;
53044;SDS011;38930;52.766;6.884;2022-12-07T01:13:58;4.10;;;2.50;;
53044;SDS011;38930;52.766;6.884;2022-12-07T01:16:25;7.10;;;2.70;;
53044;SDS011;38930;52.766;6.884;2022-12-07T01:18:52;10.38;;;2.50;;
53044;SDS011;38930;52.766;6.884;2022-12-07T01:21:20;6.10;;;2.67;;
53044;SDS011;38930;52.766;6.884;2022-12-07T01:23:48;7.95;;;2.65;;
53044;SDS011;38930;52.766;6.884;2022-12-07T01:26:15;5.13;;;2.30;;
53044;SDS011;38930;52.766;6.884;2022-12-07T01:28:42;10.52;;;2.58;;
53044;SDS011;38930;52.766;6.884;2022-12-07T01:31:12;6.97;;;2.35;;
53044;SDS011;38930;52.766;6.884;2022-12-07T01:33:43;8.63;;;2.33;;
53044;SDS011;38930;52.766;6.884;2022-12-07T01:38:39;10.73;;;2.45;;
53044;SDS011;38930;52.766;6.884;2022-12-07T01:41:05;8.45;;;2.47;;
53044;SDS011;38930;52.766;6.884;2022-12-07T01:43:31;9.20;;;2.67;;
53044;SDS011;38930;52.766;6.884;2022-12-07T01:45:58;9.68;;;2.40;;
53044;SDS011;38930;52.766;6.884;2022-12-07T01:48:26;3.35;;;2.30;;
53044;SDS011;38930;52.766;6.884;2022-12-07T01:50:56;4.75;;;2.30;;
53044;SDS011;38930;52.766;6.884;2022-12-07T01:53:29;2.53;;;2.00;;
53044;SDS011;38930;52.766;6.884;2022-12-07T01:55:55;4.07;;;2.40;;
53044;SDS011;38930;52.766;6.884;2022-12-07T02:00:49;9.70;;;2.53;;
53044;SDS011;38930;52.766;6.884;2022-12-07T02:03:19;3.58;;;2.28;;
53044;SDS011;38930;52.766;6.884;2022-12-07T02:06:01;3.15;;;2.20;;
53044;SDS011;38930;52.766;6.884;2022-12-07T02:08:27;6.68;;;2.17;;
53044;SDS011;38930;52.766;6.884;2022-12-07T02:10:54;3.35;;;2.15;;
53044;SDS011;38930;52.766;6.884;2022-12-07T02:13:20;8.88;;;2.72;;
53044;SDS011;38930;52.766;6.884;2022-12-07T02:18:38;8.20;;;2.40;;
53044;SDS011;38930;52.766;6.884;2022-12-07T02:26:47;5.63;;;2.17;;
53044;SDS011;38930;52.766;6.884;2022-12-07T02:32:06;4.32;;;2.20;;
53044;SDS011;38930;52.766;6.884;2022-12-07T02:34:48;7.07;;;2.20;;
53044;SDS011;38930;52.766;6.884;2022-12-07T02:37:25;3.20;;;1.80;;
53044;SDS011;38930;52.766;6.884;2022-12-07T02:40:00;7.80;;;1.98;;
53044;SDS011;38930;52.766;6.884;2022-12-07T02:42:45;3.80;;;1.88;;
53044;SDS011;38930;52.766;6.884;2022-12-07T02:45:15;5.70;;;2.10;;
53044;SDS011;38930;52.766;6.884;2022-12-07T02:47:44;3.70;;;1.85;;
53044;SDS011;38930;52.766;6.884;2022-12-07T02:50:13;4.45;;;2.05;;
53044;SDS011;38930;52.766;6.884;2022-12-07T02:52:39;7.95;;;2.20;;
53044;SDS011;38930;52.766;6.884;2022-12-07T02:55:05;5.20;;;1.90;;
53044;SDS011;38930;52.766;6.884;2022-12-07T03:00:14;7.45;;;2.42;;
53044;SDS011;38930;52.766;6.884;2022-12-07T03:08:07;8.73;;;2.33;;
53044;SDS011;38930;52.766;6.884;2022-12-07T03:10:54;7.03;;;2.30;;
53044;SDS011;38930;52.766;6.884;2022-12-07T03:13:31;5.68;;;2.40;;
53044;SDS011;38930;52.766;6.884;2022-12-07T03:16:23;5.47;;;2.22;;
53044;SDS011;38930;52.766;6.884;2022-12-07T03:18:59;13.55;;;2.50;;
53044;SDS011;38930;52.766;6.884;2022-12-07T03:22:00;4.53;;;2.47;;
53044;SDS011;38930;52.766;6.884;2022-12-07T03:24:29;7.38;;;2.67;;
53044;SDS011;38930;52.766;6.884;2022-12-07T03:27:04;9.85;;;2.97;;
53044;SDS011;38930;52.766;6.884;2022-12-07T03:29:44;8.45;;;2.78;;
53044;SDS011;38930;52.766;6.884;2022-12-07T03:32:16;7.15;;;3.13;;
53044;SDS011;38930;52.766;6.884;2022-12-07T03:34:58;6.35;;;2.90;;
53044;SDS011;38930;52.766;6.884;2022-12-07T03:37:33;6.07;;;2.70;;
53044;SDS011;38930;52.766;6.884;2022-12-07T03:40:16;9.00;;;2.70;;
53044;SDS011;38930;52.766;6.884;2022-12-07T03:42:53;4.38;;;2.40;;
53044;SDS011;38930;52.766;6.884;2022-12-07T03:45:21;5.13;;;2.70;;
53044;SDS011;38930;52.766;6.884;2022-12-07T03:48:02;6.45;;;2.47;;
53044;SDS011;38930;52.766;6.884;2022-12-07T03:51:19;5.85;;;2.20;;
53044;SDS011;38930;52.766;6.884;2022-12-07T03:53:34;12.75;;;3.10;;
53044;SDS011;38930;52.766;6.884;2022-12-07T03:56:13;5.65;;;2.55;;
53044;SDS011;38930;52.766;6.884;2022-12-07T03:58:40;10.30;;;2.38;;
53044;SDS011;38930;52.766;6.884;2022-12-07T04:01:06;4.53;;;2.38;;
53044;SDS011;38930;52.766;6.884;2022-12-07T04:03:32;8.00;;;2.33;;
53044;SDS011;38930;52.766;6.884;2022-12-07T04:05:58;7.05;;;2.13;;
53044;SDS011;38930;52.766;6.884;2022-12-07T04:08:24;2.83;;;2.17;;
53044;SDS011;38930;52.766;6.884;2022-12-07T04:10:50;3.83;;;2.47;;
53044;SDS011;38930;52.766;6.884;2022-12-07T04:13:16;4.15;;;2.40;;
53044;SDS011;38930;52.766;6.884;2022-12-07T04:15:41;5.05;;;2.10;;
53044;SDS011;38930;52.766;6.884;2022-12-07T04:18:07;7.25;;;2.20;;
53044;SDS011;38930;52.766;6.884;2022-12-07T04:20:32;6.43;;;2.10;;
53044;SDS011;38930;52.766;6.884;2022-12-07T04:22:58;4.70;;;2.30;;
53044;SDS011;38930;52.766;6.884;2022-12-07T04:25:24;3.50;;;1.88;;
53044;SDS011;38930;52.766;6.884;2022-12-07T04:27:49;4.85;;;2.65;;
53044;SDS011;38930;52.766;6.884;2022-12-07T04:30:15;6.07;;;2.13;;
53044;SDS011;38930;52.766;6.884;2022-12-07T04:32:40;3.90;;;2.30;;
53044;SDS011;38930;52.766;6.884;2022-12-07T04:35:06;4.30;;;2.15;;
53044;SDS011;38930;52.766;6.884;2022-12-07T04:37:32;4.20;;;2.00;;
53044;SDS011;38930;52.766;6.884;2022-12-07T04:39:58;4.72;;;2.50;;
53044;SDS011;38930;52.766;6.884;2022-12-07T04:42:23;3.47;;;1.90;;
53044;SDS011;38930;52.766;6.884;2022-12-07T04:44:49;3.10;;;1.77;;
53044;SDS011;38930;52.766;6.884;2022-12-07T04:47:15;6.72;;;2.20;;
53044;SDS011;38930;52.766;6.884;2022-12-07T04:49:41;7.13;;;2.10;;
53044;SDS011;38930;52.766;6.884;2022-12-07T04:52:07;5.95;;;2.15;;
53044;SDS011;38930;52.766;6.884;2022-12-07T04:54:32;9.32;;;2.25;;
53044;SDS011;38930;52.766;6.884;2022-12-07T04:56:58;5.63;;;2.00;;
53044;SDS011;38930;52.766;6.884;2022-12-07T04:59:24;2.88;;;2.28;;
53044;SDS011;38930;52.766;6.884;2022-12-07T05:01:49;4.95;;;1.98;;
53044;SDS011;38930;52.766;6.884;2022-12-07T05:04:15;8.13;;;2.58;;
53044;SDS011;38930;52.766;6.884;2022-12-07T05:06:41;9.50;;;2.20;;
53044;SDS011;38930;52.766;6.884;2022-12-07T05:09:07;4.53;;;2.33;;
53044;SDS011;38930;52.766;6.884;2022-12-07T05:11:32;7.30;;;2.47;;
53044;SDS011;38930;52.766;6.884;2022-12-07T05:14:12;5.47;;;2.25;;
53044;SDS011;38930;52.766;6.884;2022-12-07T05:16:42;13.10;;;2.65;;
53044;SDS011;38930;52.766;6.884;2022-12-07T05:19:09;4.38;;;2.20;;
53044;SDS011;38930;52.766;6.884;2022-12-07T05:21:35;7.65;;;2.25;;
53044;SDS011;38930;52.766;6.884;2022-12-07T05:24:02;10.25;;;2.53;;
53044;SDS011;38930;52.766;6.884;2022-12-07T05:26:28;7.03;;;2.38;;
53044;SDS011;38930;52.766;6.884;2022-12-07T05:28:54;5.90;;;2.10;;
53044;SDS011;38930;52.766;6.884;2022-12-07T05:31:21;8.98;;;2.35;;
53044;SDS011;38930;52.766;6.884;2022-12-07T05:33:47;6.40;;;2.47;;
53044;SDS011;38930;52.766;6.884;2022-12-07T05:36:12;7.85;;;2.20;;
53044;SDS011;38930;52.766;6.884;2022-12-07T05:38:38;12.25;;;2.80;;
53044;SDS011;38930;52.766;6.884;2022-12-07T05:41:04;4.85;;;2.35;;
53044;SDS011;38930;52.766;6.884;2022-12-07T05:43:31;7.75;;;2.20;;
53044;SDS011;38930;52.766;6.884;2022-12-07T05:45:57;6.82;;;2.55;;
53044;SDS011;38930;52.766;6.884;2022-12-07T05:48:22;11.20;;;2.72;;
53044;SDS011;38930;52.766;6.884;2022-12-07T05:50:49;7.05;;;2.65;;
53044;SDS011;38930;52.766;6.884;2022-12-07T05:53:15;6.55;;;2.47;;
53044;SDS011;38930;52.766;6.884;2022-12-07T05:55:42;8.23;;;2.47;;
53044;SDS011;38930;52.766;6.884;2022-12-07T05:58:07;9.27;;;2.15;;
53044;SDS011;38930;52.766;6.884;2022-12-07T06:00:54;11.02;;;2.70;;
53044;SDS011;38930;52.766;6.884;2022-12-07T06:03:20;7.60;;;2.58;;
53044;SDS011;38930;52.766;6.884;2022-12-07T06:05:45;7.20;;;2.50;;
53044;SDS011;38930;52.766;6.884;2022-12-07T06:08:11;9.82;;;2.05;;
53044;SDS011;38930;52.766;6.884;2022-12-07T06:10:37;6.10;;;1.92;;
53044;SDS011;38930;52.766;6.884;2022-12-07T06:13:02;4.93;;;2.28;;
53044;SDS011;38930;52.766;6.884;2022-12-07T06:15:28;5.78;;;2.28;;
53044;SDS011;38930;52.766;6.884;2022-12-07T06:17:53;3.20;;;2.25;;
53044;SDS011;38930;52.766;6.884;2022-12-07T06:20:19;4.18;;;1.88;;
53044;SDS011;38930;52.766;6.884;2022-12-07T06:22:45;6.18;;;2.25;;
53044;SDS011;38930;52.766;6.884;2022-12-07T06:25:10;4.82;;;2.10;;
53044;SDS011;38930;52.766;6.884;2022-12-07T06:27:36;6.15;;;2.20;;
53044;SDS011;38930;52.766;6.884;2022-12-07T06:30:02;6.53;;;2.38;;
53044;SDS011;38930;52.766;6.884;2022-12-07T06:32:33;5.22;;;2.22;;
53044;SDS011;38930;52.766;6.884;2022-12-07T06:34:59;9.65;;;2.58;;
53044;SDS011;38930;52.766;6.884;2022-12-07T06:37:25;9.82;;;2.42;;
53044;SDS011;38930;52.766;6.884;2022-12-07T06:39:51;11.15;;;2.50;;
53044;SDS011;38930;52.766;6.884;2022-12-07T06:42:16;9.23;;;1.83;;
53044;SDS011;38930;52.766;6.884;2022-12-07T06:44:42;9.02;;;2.70;;
53044;SDS011;38930;52.766;6.884;2022-12-07T06:47:07;6.22;;;2.53;;
53044;SDS011;38930;52.766;6.884;2022-12-07T06:49:34;8.38;;;2.47;;
53044;SDS011;38930;52.766;6.884;2022-12-07T06:52:00;3.50;;;2.22;;
53044;SDS011;38930;52.766;6.884;2022-12-07T06:54:25;8.55;;;2.50;;
53044;SDS011;38930;52.766;6.884;2022-12-07T06:56:51;6.93;;;2.30;;
53044;SDS011;38930;52.766;6.884;2022-12-07T06:59:17;6.68;;;2.15;;
53044;SDS011;38930;52.766;6.884;2022-12-07T07:01:42;7.45;;;2.55;;
53044;SDS011;38930;52.766;6.884;2022-12-07T07:04:08;7.65;;;2.22;;
53044;SDS011;38930;52.766;6.884;2022-12-07T07:06:33;5.97;;;2.53;;
53044;SDS011;38930;52.766;6.884;2022-12-07T07:08:59;5.28;;;2.47;;
53044;SDS011;38930;52.766;6.884;2022-12-07T07:11:24;9.13;;;2.40;;
53044;SDS011;38930;52.766;6.884;2022-12-07T07:13:50;5.15;;;2.33;;
53044;SDS011;38930;52.766;6.884;2022-12-07T07:16:16;7.47;;;2.92;;
53044;SDS011;38930;52.766;6.884;2022-12-07T07:18:41;8.82;;;2.92;;
53044;SDS011;38930;52.766;6.884;2022-12-07T07:21:07;7.13;;;2.30;;
53044;SDS011;38930;52.766;6.884;2022-12-07T07:23:32;5.22;;;2.13;;
53044;SDS011;38930;52.766;6.884;2022-12-07T07:25:58;5.13;;;2.42;;
53044;SDS011;38930;52.766;6.884;2022-12-07T07:28:23;8.70;;;2.72;;
53044;SDS011;38930;52.766;6.884;2022-12-07T07:30:49;5.55;;;2.38;;
53044;SDS011;38930;52.766;6.884;2022-12-07T07:33:15;7.07;;;2.40;;
53044;SDS011;38930;52.766;6.884;2022-12-07T07:35:40;5.28;;;2.33;;
53044;SDS011;38930;52.766;6.884;2022-12-07T07:38:06;5.40;;;2.33;;
53044;SDS011;38930;52.766;6.884;2022-12-07T07:40:32;11.77;;;2.13;;
53044;SDS011;38930;52.766;6.884;2022-12-07T07:42:58;3.78;;;2.53;;
53044;SDS011;38930;52.766;6.884;2022-12-07T07:45:24;17.58;;;3.45;;
53044;SDS011;38930;52.766;6.884;2022-12-07T07:47:51;7.45;;;2.47;;
53044;SDS011;38930;52.766;6.884;2022-12-07T07:50:17;7.38;;;2.50;;
53044;SDS011;38930;52.766;6.884;2022-12-07T07:52:44;10.52;;;4.85;;
53044;SDS011;38930;52.766;6.884;2022-12-07T07:55:10;8.30;;;4.30;;
53044;SDS011;38930;52.766;6.884;2022-12-07T07:57:35;12.68;;;4.20;;
53044;SDS011;38930;52.766;6.884;2022-12-07T08:00:06;10.70;;;6.63;;
53044;SDS011;38930;52.766;6.884;2022-12-07T08:02:33;13.25;;;6.78;;
53044;SDS011;38930;52.766;6.884;2022-12-07T08:04:59;6.03;;;3.92;;
53044;SDS011;38930;52.766;6.884;2022-12-07T08:07:25;9.05;;;4.43;;
53044;SDS011;38930;52.766;6.884;2022-12-07T08:09:52;10.65;;;3.88;;
53044;SDS011;38930;52.766;6.884;2022-12-07T08:12:18;7.30;;;3.20;;
53044;SDS011;38930;52.766;6.884;2022-12-07T08:14:44;5.07;;;2.70;;
53044;SDS011;38930;52.766;6.884;2022-12-07T08:17:09;7.18;;;2.45;;
53044;SDS011;38930;52.766;6.884;2022-12-07T08:19:35;5.78;;;2.58;;
53044;SDS011;38930;52.766;6.884;2022-12-07T08:22:01;9.30;;;2.35;;
53044;SDS011;38930;52.766;6.884;2022-12-07T08:24:27;5.23;;;2.20;;
53044;SDS011;38930;52.766;6.884;2022-12-07T08:26:53;6.65;;;2.50;;
53044;SDS011;38930;52.766;6.884;2022-12-07T08:29:18;9.15;;;2.60;;
53044;SDS011;38930;52.766;6.884;2022-12-07T08:31:44;7.07;;;2.25;;
53044;SDS011;38930;52.766;6.884;2022-12-07T08:34:10;9.48;;;2.40;;
53044;SDS011;38930;52.766;6.884;2022-12-07T08:36:36;9.55;;;2.47;;
53044;SDS011;38930;52.766;6.884;2022-12-07T08:39:02;7.45;;;2.70;;
53044;SDS011;38930;52.766;6.884;2022-12-07T08:41:28;8.52;;;4.45;;
53044;SDS011;38930;52.766;6.884;2022-12-07T08:43:53;11.75;;;6.03;;
53044;SDS011;38930;52.766;6.884;2022-12-07T08:46:26;8.63;;;2.63;;
53044;SDS011;38930;52.766;6.884;2022-12-07T08:49:01;7.47;;;3.25;;
53044;SDS011;38930;52.766;6.884;2022-12-07T08:51:29;5.00;;;2.40;;
53044;SDS011;38930;52.766;6.884;2022-12-07T08:53:55;4.43;;;2.55;;
53044;SDS011;38930;52.766;6.884;2022-12-07T08:56:23;6.00;;;2.50;;
53044;SDS011;38930;52.766;6.884;2022-12-07T08:58:49;4.57;;;2.55;;
53044;SDS011;38930;52.766;6.884;2022-12-07T09:01:15;9.80;;;2.88;;
53044;SDS011;38930;52.766;6.884;2022-12-07T09:03:41;10.20;;;2.90;;
53044;SDS011;38930;52.766;6.884;2022-12-07T09:06:07;6.63;;;2.40;;
53044;SDS011;38930;52.766;6.884;2022-12-07T09:08:34;5.85;;;2.25;;
53044;SDS011;38930;52.766;6.884;2022-12-07T09:11:04;3.75;;;2.50;;
53044;SDS011;38930;52.766;6.884;2022-12-07T09:13:30;7.85;;;4.05;;
53044;SDS011;38930;52.766;6.884;2022-12-07T09:15:55;7.78;;;2.75;;
53044;SDS011;38930;52.766;6.884;2022-12-07T09:18:22;6.33;;;3.00;;
53044;SDS011;38930;52.766;6.884;2022-12-07T09:23:14;6.68;;;2.90;;
53044;SDS011;38930;52.766;6.884;2022-12-07T09:25:40;6.82;;;4.50;;
53044;SDS011;38930;52.766;6.884;2022-12-07T09:28:05;8.23;;;3.80;;
53044;SDS011;38930;52.766;6.884;2022-12-07T09:30:31;8.25;;;3.60;;
53044;SDS011;38930;52.766;6.884;2022-12-07T09:32:57;6.95;;;4.05;;
53044;SDS011;38930;52.766;6.884;2022-12-07T09:35:23;10.80;;;6.05;;
53044;SDS011;38930;52.766;6.884;2022-12-07T09:37:49;7.65;;;4.70;;
53044;SDS011;38930;52.766;6.884;2022-12-07T09:40:16;8.48;;;6.65;;
53044;SDS011;38930;52.766;6.884;2022-12-07T09:42:51;7.05;;;3.97;;
53044;SDS011;38930;52.766;6.884;2022-12-07T09:45:22;8.68;;;4.80;;
53044;SDS011;38930;52.766;6.884;2022-12-07T09:47:59;8.68;;;5.00;;
53044;SDS011;38930;52.766;6.884;2022-12-07T09:50:25;7.93;;;3.65;;
53044;SDS011;38930;52.766;6.884;2022-12-07T09:52:53;8.20;;;3.03;;
53044;SDS011;38930;52.766;6.884;2022-12-07T09:55:30;5.60;;;2.78;;
53044;SDS011;38930;52.766;6.884;2022-12-07T09:57:56;6.85;;;3.42;;
53044;SDS011;38930;52.766;6.884;2022-12-07T10:02:56;8.52;;;3.30;;
53044;SDS011;38930;52.766;6.884;2022-12-07T10:05:30;11.73;;;3.47;;
53044;SDS011;38930;52.766;6.884;2022-12-07T10:08:15;6.85;;;2.55;;
53044;SDS011;38930;52.766;6.884;2022-12-07T10:10:42;7.80;;;2.63;;
53044;SDS011;38930;52.766;6.884;2022-12-07T10:13:13;11.90;;;3.13;;
53044;SDS011;38930;52.766;6.884;2022-12-07T10:15:45;10.10;;;3.03;;
53044;SDS011;38930;52.766;6.884;2022-12-07T10:18:37;6.15;;;2.47;;
53044;SDS011;38930;52.766;6.884;2022-12-07T10:21:36;6.43;;;3.28;;
53044;SDS011;38930;52.766;6.884;2022-12-07T10:26:40;10.30;;;3.33;;
53044;SDS011;38930;52.766;6.884;2022-12-07T10:29:31;8.68;;;2.70;;
53044;SDS011;38930;52.766;6.884;2022-12-07T10:32:00;9.10;;;3.88;;
53044;SDS011;38930;52.766;6.884;2022-12-07T10:37:13;7.78;;;2.83;;
53044;SDS011;38930;52.766;6.884;2022-12-07T10:39:50;7.78;;;2.55;;
53044;SDS011;38930;52.766;6.884;2022-12-07T10:44:48;5.28;;;2.22;;
53044;SDS011;38930;52.766;6.884;2022-12-07T10:58:19;7.07;;;2.65;;
53044;SDS011;38930;52.766;6.884;2022-12-07T11:03:55;5.45;;;2.35;;
53044;SDS011;38930;52.766;6.884;2022-12-07T11:09:57;6.55;;;3.03;;
53044;SDS011;38930;52.766;6.884;2022-12-07T11:12:34;7.78;;;2.75;;
53044;SDS011;38930;52.766;6.884;2022-12-07T11:20:48;4.30;;;2.45;;
53044;SDS011;38930;52.766;6.884;2022-12-07T11:26:26;4.65;;;2.42;;
53044;SDS011;38930;52.766;6.884;2022-12-07T11:35:08;5.95;;;2.50;;
53044;SDS011;38930;52.766;6.884;2022-12-07T11:37:21;13.10;;;2.67;;
53044;SDS011;38930;52.766;6.884;2022-12-07T11:39:59;8.05;;;2.60;;
53044;SDS011;38930;52.766;6.884;2022-12-07T11:50:36;6.15;;;2.35;;
53044;SDS011;38930;52.766;6.884;2022-12-07T11:55:46;4.88;;;2.25;;
53044;SDS011;38930;52.766;6.884;2022-12-07T11:58:35;9.02;;;2.53;;
53044;SDS011;38930;52.766;6.884;2022-12-07T12:03:49;5.28;;;2.38;;
53044;SDS011;38930;52.766;6.884;2022-12-07T12:06:21;5.68;;;2.88;;
53044;SDS011;38930;52.766;6.884;2022-12-07T12:11:47;5.22;;;2.08;;
53044;SDS011;38930;52.766;6.884;2022-12-07T12:17:12;8.27;;;2.97;;
53044;SDS011;38930;52.766;6.884;2022-12-07T12:19:58;5.68;;;2.22;;
53044;SDS011;38930;52.766;6.884;2022-12-07T12:22:41;4.38;;;2.15;;
53044;SDS011;38930;52.766;6.884;2022-12-07T12:25:21;6.38;;;1.98;;
53044;SDS011;38930;52.766;6.884;2022-12-07T12:27:50;5.32;;;2.05;;
53044;SDS011;38930;52.766;6.884;2022-12-07T12:30:24;4.07;;;2.42;;
53044;SDS011;38930;52.766;6.884;2022-12-07T12:33:00;6.80;;;2.80;;
53044;SDS011;38930;52.766;6.884;2022-12-07T12:35:37;5.53;;;1.95;;
53044;SDS011;38930;52.766;6.884;2022-12-07T12:40:58;7.40;;;2.00;;
53044;SDS011;38930;52.766;6.884;2022-12-07T12:56:48;7.78;;;2.17;;
53044;SDS011;38930;52.766;6.884;2022-12-07T12:59:29;4.10;;;1.98;;
53044;SDS011;38930;52.766;6.884;2022-12-07T13:12:59;6.85;;;2.25;;
53044;SDS011;38930;52.766;6.884;2022-12-07T13:20:58;9.73;;;2.10;;
53044;SDS011;38930;52.766;6.884;2022-12-07T13:23:32;8.52;;;2.15;;
53044;SDS011;38930;52.766;6.884;2022-12-07T13:31:13;10.07;;;2.50;;
53044;SDS011;38930;52.766;6.884;2022-12-07T13:33:49;6.78;;;1.90;;
53044;SDS011;38930;52.766;6.884;2022-12-07T13:36:29;6.30;;;2.65;;
53044;SDS011;38930;52.766;6.884;2022-12-07T13:41:51;7.63;;;1.80;;
53044;SDS011;38930;52.766;6.884;2022-12-07T13:44:20;4.50;;;2.22;;
53044;SDS011;38930;52.766;6.884;2022-12-07T13:46:48;7.60;;;1.85;;
53044;SDS011;38930;52.766;6.884;2022-12-07T13:49:16;4.38;;;1.85;;
53044;SDS011;38930;52.766;6.884;2022-12-07T13:54:19;7.03;;;1.98;;
53044;SDS011;38930;52.766;6.884;2022-12-07T13:56:51;6.28;;;1.88;;
53044;SDS011;38930;52.766;6.884;2022-12-07T13:59:19;3.58;;;1.60;;
53044;SDS011;38930;52.766;6.884;2022-12-07T14:01:48;2.90;;;1.65;;
53044;SDS011;38930;52.766;6.884;2022-12-07T14:06:52;6.07;;;1.45;;
53044;SDS011;38930;52.766;6.884;2022-12-07T14:09:19;2.15;;;1.30;;
53044;SDS011;38930;52.766;6.884;2022-12-07T14:11:47;6.28;;;1.98;;
53044;SDS011;38930;52.766;6.884;2022-12-07T14:14:19;4.35;;;1.77;;
53044;SDS011;38930;52.766;6.884;2022-12-07T14:17:11;2.38;;;1.50;;
53044;SDS011;38930;52.766;6.884;2022-12-07T14:19:42;5.18;;;1.65;;
53044;SDS011;38930;52.766;6.884;2022-12-07T14:30:17;4.43;;;1.60;;
53044;SDS011;38930;52.766;6.884;2022-12-07T14:32:43;3.00;;;1.25;;
53044;SDS011;38930;52.766;6.884;2022-12-07T14:35:13;4.32;;;1.33;;
53044;SDS011;38930;52.766;6.884;2022-12-07T14:37:42;4.45;;;1.52;;
53044;SDS011;38930;52.766;6.884;2022-12-07T14:40:12;4.63;;;1.70;;
53044;SDS011;38930;52.766;6.884;2022-12-07T14:42:39;1.85;;;1.30;;
53044;SDS011;38930;52.766;6.884;2022-12-07T14:45:10;4.05;;;1.67;;
53044;SDS011;38930;52.766;6.884;2022-12-07T14:47:38;5.57;;;1.80;;
53044;SDS011;38930;52.766;6.884;2022-12-07T14:50:04;3.80;;;1.40;;
53044;SDS011;38930;52.766;6.884;2022-12-07T14:52:30;4.50;;;1.58;;
53044;SDS011;38930;52.766;6.884;2022-12-07T14:54:56;4.15;;;1.70;;
53044;SDS011;38930;52.766;6.884;2022-12-07T14:57:22;9.10;;;1.70;;
53044;SDS011;38930;52.766;6.884;2022-12-07T14:59:48;3.07;;;1.60;;
53044;SDS011;38930;52.766;6.884;2022-12-07T15:02:14;2.88;;;1.40;;
53044;SDS011;38930;52.766;6.884;2022-12-07T15:04:40;4.05;;;1.50;;
53044;SDS011;38930;52.766;6.884;2022-12-07T15:07:09;2.85;;;1.65;;
53044;SDS011;38930;52.766;6.884;2022-12-07T15:09:40;2.85;;;1.63;;
53044;SDS011;38930;52.766;6.884;2022-12-07T15:12:06;4.50;;;1.60;;
53044;SDS011;38930;52.766;6.884;2022-12-07T15:14:32;3.75;;;1.80;;
53044;SDS011;38930;52.766;6.884;2022-12-07T15:16:57;3.35;;;2.15;;
53044;SDS011;38930;52.766;6.884;2022-12-07T15:19:23;4.57;;;1.77;;
53044;SDS011;38930;52.766;6.884;2022-12-07T15:21:52;5.05;;;1.70;;
53044;SDS011;38930;52.766;6.884;2022-12-07T15:24:18;2.38;;;1.80;;
53044;SDS011;38930;52.766;6.884;2022-12-07T15:26:45;2.00;;;1.45;;
53044;SDS011;38930;52.766;6.884;2022-12-07T15:29:11;3.63;;;2.08;;
53044;SDS011;38930;52.766;6.884;2022-12-07T15:31:37;3.25;;;1.70;;
53044;SDS011;38930;52.766;6.884;2022-12-07T15:34:03;4.50;;;2.10;;
53044;SDS011;38930;52.766;6.884;2022-12-07T15:36:30;6.47;;;3.27;;
53044;SDS011;38930;52.766;6.884;2022-12-07T15:38:57;5.22;;;2.17;;
53044;SDS011;38930;52.766;6.884;2022-12-07T15:41:23;4.50;;;2.55;;
53044;SDS011;38930;52.766;6.884;2022-12-07T15:43:49;5.22;;;2.38;;
53044;SDS011;38930;52.766;6.884;2022-12-07T15:46:34;4.40;;;1.80;;
53044;SDS011;38930;52.766;6.884;2022-12-07T15:49:02;4.72;;;1.73;;
53044;SDS011;38930;52.766;6.884;2022-12-07T15:51:29;8.07;;;2.40;;
53044;SDS011;38930;52.766;6.884;2022-12-07T15:53:55;5.28;;;2.47;;
53044;SDS011;38930;52.766;6.884;2022-12-07T15:56:22;5.25;;;1.80;;
53044;SDS011;38930;52.766;6.884;2022-12-07T15:58:48;5.80;;;1.90;;
53044;SDS011;38930;52.766;6.884;2022-12-07T16:01:14;5.63;;;2.00;;
53044;SDS011;38930;52.766;6.884;2022-12-07T16:03:42;3.50;;;1.98;;
53044;SDS011;38930;52.766;6.884;2022-12-07T16:06:09;5.72;;;2.30;;
53044;SDS011;38930;52.766;6.884;2022-12-07T16:08:35;5.25;;;2.13;;
53044;SDS011;38930;52.766;6.884;2022-12-07T16:11:04;5.93;;;1.98;;
53044;SDS011;38930;52.766;6.884;2022-12-07T16:13:31;4.55;;;2.00;;
53044;SDS011;38930;52.766;6.884;2022-12-07T16:15:57;2.72;;;1.95;;
53044;SDS011;38930;52.766;6.884;2022-12-07T16:18:22;6.40;;;2.55;;
53044;SDS011;38930;52.766;6.884;2022-12-07T16:20:48;12.93;;;3.22;;
53044;SDS011;38930;52.766;6.884;2022-12-07T16:23:14;6.85;;;3.30;;
53044;SDS011;38930;52.766;6.884;2022-12-07T16:25:40;7.68;;;3.55;;
53044;SDS011;38930;52.766;6.884;2022-12-07T16:28:06;4.28;;;2.72;;
53044;SDS011;38930;52.766;6.884;2022-12-07T16:32:58;3.70;;;2.60;;
53044;SDS011;38930;52.766;6.884;2022-12-07T16:35:24;6.90;;;3.40;;
53044;SDS011;38930;52.766;6.884;2022-12-07T16:37:49;10.85;;;3.58;;
53044;SDS011;38930;52.766;6.884;2022-12-07T16:40:15;6.93;;;2.90;;
53044;SDS011;38930;52.766;6.884;2022-12-07T16:42:40;5.55;;;3.80;;
53044;SDS011;38930;52.766;6.884;2022-12-07T16:45:06;9.88;;;4.38;;
53044;SDS011;38930;52.766;6.884;2022-12-07T16:47:32;5.28;;;3.38;;
53044;SDS011;38930;52.766;6.884;2022-12-07T16:49:58;3.35;;;2.20;;
53044;SDS011;38930;52.766;6.884;2022-12-07T16:52:23;5.35;;;2.72;;
53044;SDS011;38930;52.766;6.884;2022-12-07T16:54:49;9.05;;;4.78;;
53044;SDS011;38930;52.766;6.884;2022-12-07T16:57:15;6.28;;;3.63;;
53044;SDS011;38930;52.766;6.884;2022-12-07T16:59:41;4.90;;;3.15;;
53044;SDS011;38930;52.766;6.884;2022-12-07T17:02:09;3.17;;;2.30;;
53044;SDS011;38930;52.766;6.884;2022-12-07T17:04:37;2.63;;;2.08;;
53044;SDS011;38930;52.766;6.884;2022-12-07T17:07:04;5.88;;;2.17;;
53044;SDS011;38930;52.766;6.884;2022-12-07T17:09:30;3.78;;;1.75;;
53044;SDS011;38930;52.766;6.884;2022-12-07T17:11:57;2.90;;;1.55;;
53044;SDS011;38930;52.766;6.884;2022-12-07T17:14:22;3.70;;;1.50;;
53044;SDS011;38930;52.766;6.884;2022-12-07T17:17:06;3.03;;;2.10;;
53044;SDS011;38930;52.766;6.884;2022-12-07T17:19:32;1.95;;;1.67;;
53044;SDS011;38930;52.766;6.884;2022-12-07T17:21:58;4.22;;;1.60;;